Time;durP1;ratioP1;P1;durP2;ratioP2;P2;SDS_P1;SDS_P2;PMS_P1;PMS_P2;Temp;Humidity;BMP_temperature;BMP_pressure;BME280_temperature;BME280_humidity;BME280_pressure;Samples;Min_cycle;Max_cycle;Signal;HPM_P1;HPM_P2
2022/05/18 00:00:21;;;;;;;4.40;1.48;;;18.70;70.40;;;;;;5089254;28;20130;-79
2022/05/18 00:02:48;;;;;;;3.38;1.50;;;18.70;70.60;;;;;;5109063;28;20044;-80
2022/05/18 00:05:15;;;;;;;4.32;2.05;;;18.70;70.70;;;;;;5110242;28;20040;-79
2022/05/18 00:07:42;;;;;;;2.85;1.02;;;18.60;70.80;;;;;;5092133;28;20057;-80
2022/05/18 00:10:10;;;;;;;4.55;1.20;;;18.60;70.80;;;;;;5065111;28;20174;-80
2022/05/18 00:12:43;;;;;;;2.95;1.10;;;18.60;70.90;;;;;;5080209;28;20406;-79
2022/05/18 00:15:11;;;;;;;4.60;1.75;;;18.50;71.10;;;;;;5102651;28;20039;-80
2022/05/18 00:17:38;;;;;;;2.60;1.25;;;18.50;71.20;;;;;;5093012;28;20036;-80
2022/05/18 00:20:07;;;;;;;3.50;1.58;;;18.40;71.30;;;;;;5093099;28;20093;-80
2022/05/18 00:22:45;;;;;;;3.15;1.38;;;18.40;71.40;;;;;;5108668;28;20040;-80
2022/05/18 00:25:13;;;;;;;2.65;1.20;;;18.40;71.60;;;;;;5113542;28;20098;-80
2022/05/18 00:27:40;;;;;;;2.88;1.10;;;18.30;71.60;;;;;;5097632;28;20096;-79
2022/05/18 00:30:09;;;;;;;3.42;1.83;;;18.20;71.80;;;;;;5074952;28;20472;-79
2022/05/18 00:32:36;;;;;;;3.17;1.52;;;18.20;72.00;;;;;;5096707;28;20130;-79
2022/05/18 00:35:04;;;;;;;3.90;1.48;;;18.20;72.20;;;;;;5097386;28;20040;-79
2022/05/18 00:37:32;;;;;;;3.13;1.63;;;18.10;72.30;;;;;;5114427;28;20043;-80
2022/05/18 00:39:59;;;;;;;2.70;1.45;;;18.10;72.40;;;;;;5094550;28;20369;-78
2022/05/18 00:42:28;;;;;;;2.92;1.60;;;18.10;72.50;;;;;;5064538;28;20036;-82
2022/05/18 00:44:55;;;;;;;3.83;1.70;;;18.00;72.60;;;;;;5114122;28;20051;-82
2022/05/18 00:47:23;;;;;;;3.65;1.90;;;18.00;72.60;;;;;;5113960;28;20164;-82
2022/05/18 00:50:07;;;;;;;3.92;1.83;;;18.00;72.70;;;;;;5105311;28;20408;-82
2022/05/18 00:52:43;;;;;;;2.85;1.27;;;17.90;72.80;;;;;;5111514;28;20039;-82
2022/05/18 00:55:15;;;;;;;3.78;1.45;;;17.90;72.90;;;;;;5114047;28;20043;-82
2022/05/18 00:57:56;;;;;;;3.60;1.90;;;17.80;73.00;;;;;;5127569;27;20035;-82
2022/05/18 01:00:23;;;;;;;2.97;1.65;;;17.80;73.10;;;;;;5113733;28;20389;-82
2022/05/18 01:03:10;;;;;;;3.50;1.33;;;17.80;73.30;;;;;;5096626;28;20039;-82
2022/05/18 01:05:42;;;;;;;5.07;1.55;;;17.70;73.30;;;;;;5096859;28;20059;-81
2022/05/18 01:08:13;;;;;;;3.47;1.75;;;17.70;73.50;;;;;;5113489;28;20039;-82
2022/05/18 01:10:40;;;;;;;3.85;1.63;;;17.70;73.60;;;;;;5096883;28;20122;-82
2022/05/18 01:13:07;;;;;;;3.70;1.75;;;17.60;73.70;;;;;;5095802;28;20040;-82
2022/05/18 01:15:34;;;;;;;3.88;2.17;;;17.60;73.80;;;;;;5093599;28;20052;-82
2022/05/18 01:18:01;;;;;;;3.78;1.80;;;17.60;73.80;;;;;;5079431;28;20047;-82
2022/05/18 01:20:34;;;;;;;4.85;2.20;;;17.60;73.90;;;;;;5094369;28;20511;-82
2022/05/18 01:23:24;;;;;;;2.92;1.58;;;17.50;74.00;;;;;;5112132;28;20146;-82
2022/05/18 01:26:05;;;;;;;5.20;2.17;;;17.50;74.10;;;;;;5111797;28;20048;-82
2022/05/18 01:28:43;;;;;;;4.45;2.35;;;17.50;74.20;;;;;;5113313;28;20040;-82
2022/05/18 01:31:10;;;;;;;6.38;2.42;;;17.50;74.40;;;;;;5100208;28;20145;-82
2022/05/18 01:33:37;;;;;;;4.10;2.05;;;17.40;74.40;;;;;;5079670;28;20816;-82
2022/05/18 01:36:05;;;;;;;5.95;2.28;;;17.40;74.60;;;;;;5082193;28;20055;-82
2022/05/18 01:38:32;;;;;;;5.40;2.28;;;17.40;74.70;;;;;;5086146;28;20035;-82
2022/05/18 01:41:21;;;;;;;5.88;2.00;;;17.40;74.80;;;;;;5096086;28;20500;-82
2022/05/18 01:43:51;;;;;;;4.88;2.17;;;17.40;74.90;;;;;;5104692;28;20040;-82
2022/05/18 01:46:19;;;;;;;5.13;2.72;;;17.40;75.70;;;;;;5107252;28;20120;-82
2022/05/18 01:48:50;;;;;;;3.35;2.20;;;17.40;75.10;;;;;;5113348;28;20119;-82
2022/05/18 01:51:45;;;;;;;4.45;2.58;;;17.40;75.20;;;;;;5095835;28;20040;-82
2022/05/18 01:54:13;;;;;;;4.00;2.28;;;17.50;75.30;;;;;;5084783;28;20384;-83
2022/05/18 01:56:40;;;;;;;3.65;2.22;;;17.40;75.40;;;;;;5095854;28;20040;-82
2022/05/18 01:59:08;;;;;;;4.40;2.42;;;17.50;75.40;;;;;;5090505;28;20051;-82
2022/05/18 02:01:37;;;;;;;4.93;2.20;;;17.50;75.50;;;;;;5071840;28;20551;-82
2022/05/18 02:04:05;;;;;;;4.95;2.67;;;17.50;75.60;;;;;;5101018;28;20044;-82
2022/05/18 02:06:33;;;;;;;3.90;2.22;;;17.50;75.60;;;;;;5074076;28;20135;-83
2022/05/18 02:09:01;;;;;;;4.65;2.55;;;17.50;75.70;;;;;;5072235;28;20043;-82
2022/05/18 02:11:33;;;;;;;3.47;2.20;;;17.50;75.80;;;;;;5112317;28;20488;-82
2022/05/18 02:14:00;;;;;;;5.68;2.72;;;17.50;75.90;;;;;;5111052;28;20047;-83
2022/05/18 02:16:27;;;;;;;5.22;1.75;;;17.40;76.00;;;;;;5094177;28;20031;-83
2022/05/18 02:18:54;;;;;;;4.75;2.78;;;17.40;76.00;;;;;;5077581;28;20056;-82
2022/05/18 02:21:21;;;;;;;4.13;2.75;;;17.40;76.20;;;;;;5092152;28;20036;-82
2022/05/18 02:23:51;;;;;;;7.05;2.78;;;17.40;76.30;;;;;;5075671;28;20076;-81
2022/05/18 02:26:19;;;;;;;3.97;1.90;;;17.30;76.30;;;;;;5076572;28;20105;-82
2022/05/18 02:28:47;;;;;;;5.10;2.60;;;17.30;76.40;;;;;;5092129;28;20051;-81
2022/05/18 02:31:16;;;;;;;4.13;2.10;;;17.30;76.50;;;;;;5099867;28;20081;-82
2022/05/18 02:33:43;;;;;;;4.30;2.33;;;17.30;76.50;;;;;;5095425;28;20044;-83
2022/05/18 02:36:12;;;;;;;3.95;2.20;;;17.20;76.60;;;;;;5081449;28;20043;-82
2022/05/18 02:38:41;;;;;;;6.65;2.60;;;17.20;76.70;;;;;;5100024;28;20488;-82
2022/05/18 02:41:09;;;;;;;3.85;2.55;;;17.20;76.80;;;;;;5111954;28;20350;-82
2022/05/18 02:43:38;;;;;;;3.95;2.33;;;17.10;76.80;;;;;;5077310;28;20507;-81
2022/05/18 02:46:14;;;;;;;4.35;2.65;;;17.10;77.50;;;;;;5073341;28;20101;-82
2022/05/18 02:48:42;;;;;;;3.35;2.05;;;17.10;77.00;;;;;;5091688;28;20047;-82
2022/05/18 02:51:10;;;;;;;4.72;2.22;;;17.00;77.00;;;;;;5095369;28;20070;-81
2022/05/18 02:53:37;;;;;;;3.50;2.25;;;17.00;77.00;;;;;;5094615;28;20048;-81
2022/05/18 02:56:06;;;;;;;6.72;3.05;;;17.00;77.70;;;;;;5094433;28;20042;-82
2022/05/18 02:58:48;;;;;;;4.88;2.45;;;16.90;77.10;;;;;;5085387;28;20059;-82
2022/05/18 03:01:21;;;;;;;4.97;2.85;;;17.00;77.20;;;;;;5097988;28;20043;-82
2022/05/18 03:03:50;;;;;;;6.03;2.60;;;16.90;77.20;;;;;;5103461;28;20071;-82
2022/05/18 03:06:21;;;;;;;3.25;2.20;;;16.90;77.30;;;;;;5080321;28;20097;-83
2022/05/18 03:08:49;;;;;;;4.17;2.40;;;16.90;77.30;;;;;;5096776;28;20514;-83
2022/05/18 03:11:18;;;;;;;5.28;2.60;;;16.80;77.30;;;;;;5096187;28;20099;-83
2022/05/18 03:13:45;;;;;;;5.32;2.80;;;16.80;77.40;;;;;;5098746;28;20047;-82
2022/05/18 03:16:12;;;;;;;5.72;2.85;;;16.70;77.40;;;;;;5094886;28;20085;-82
2022/05/18 03:18:39;;;;;;;6.13;2.75;;;16.70;77.50;;;;;;5092320;28;20052;-82
2022/05/18 03:23:52;;;;;;;5.03;2.83;;;16.70;77.70;;;;;;5097120;28;20120;-82
2022/05/18 03:26:22;;;;;;;5.18;2.88;;;16.70;77.70;;;;;;5089834;28;20503;-82
2022/05/18 03:28:52;;;;;;;5.28;2.88;;;16.70;77.80;;;;;;5104409;28;20040;-82
2022/05/18 03:31:19;;;;;;;4.80;2.70;;;16.70;77.90;;;;;;5095260;28;20036;-82
2022/05/18 03:33:46;;;;;;;5.75;2.78;;;16.60;77.90;;;;;;5078065;28;20074;-83
2022/05/18 03:36:15;;;;;;;4.07;2.75;;;16.60;77.90;;;;;;5094171;28;20097;-83
2022/05/18 03:38:44;;;;;;;5.13;2.58;;;16.60;77.90;;;;;;5094548;28;20797;-83
2022/05/18 03:41:13;;;;;;;6.05;3.03;;;16.60;78.00;;;;;;5093530;28;20048;-82
2022/05/18 03:43:40;;;;;;;5.60;2.80;;;16.60;78.00;;;;;;5095278;28;20498;-83
2022/05/18 03:46:07;;;;;;;5.03;2.90;;;16.60;78.10;;;;;;5115281;28;20063;-82
2022/05/18 03:48:35;;;;;;;3.95;2.25;;;16.60;78.10;;;;;;5065935;28;20085;-83
2022/05/18 03:51:04;;;;;;;4.13;2.42;;;16.60;78.10;;;;;;5098275;28;20059;-82
2022/05/18 03:53:31;;;;;;;4.63;2.10;;;16.60;78.10;;;;;;5109821;28;20040;-82
2022/05/18 03:55:59;;;;;;;4.75;2.22;;;16.60;78.10;;;;;;5106872;28;20059;-82
2022/05/18 03:58:26;;;;;;;4.72;2.75;;;16.60;78.20;;;;;;5115235;28;20345;-82
2022/05/18 04:00:55;;;;;;;4.88;3.05;;;16.60;78.20;;;;;;5088371;28;20101;-83
2022/05/18 04:03:25;;;;;;;4.78;2.58;;;16.60;78.20;;;;;;5079151;28;20483;-82
2022/05/18 04:05:53;;;;;;;4.97;2.45;;;16.60;78.30;;;;;;5114910;28;20057;-82
2022/05/18 04:08:21;;;;;;;4.15;2.20;;;16.60;78.30;;;;;;5100344;28;20040;-83
2022/05/18 04:10:48;;;;;;;4.85;2.90;;;16.60;78.30;;;;;;5108347;28;20071;-83
2022/05/18 04:13:18;;;;;;;3.47;2.03;;;16.70;78.40;;;;;;5081230;28;20074;-84
2022/05/18 04:15:45;;;;;;;6.00;3.00;;;16.60;78.30;;;;;;5103052;28;20475;-84
2022/05/18 04:18:12;;;;;;;4.60;2.60;;;16.70;78.30;;;;;;5087822;28;20071;-84
2022/05/18 04:20:40;;;;;;;4.40;2.47;;;16.70;78.30;;;;;;5110469;28;20051;-84
2022/05/18 04:23:08;;;;;;;3.80;2.15;;;16.70;78.30;;;;;;5089993;28;20434;-84
2022/05/18 04:25:36;;;;;;;5.28;2.80;;;16.70;78.40;;;;;;5115210;28;20047;-84
2022/05/18 04:28:04;;;;;;;5.03;2.50;;;16.70;78.40;;;;;;5086256;28;20169;-83
2022/05/18 04:30:31;;;;;;;3.75;2.53;;;16.70;78.40;;;;;;5093027;28;20046;-83
2022/05/18 04:32:59;;;;;;;5.60;2.58;;;16.70;78.40;;;;;;5114861;28;20121;-84
2022/05/18 04:35:27;;;;;;;3.70;2.33;;;16.80;78.50;;;;;;5087194;28;20364;-84
2022/05/18 04:37:55;;;;;;;4.97;2.22;;;16.80;78.50;;;;;;5094023;28;20051;-84
2022/05/18 04:40:23;;;;;;;3.90;2.10;;;16.80;78.50;;;;;;5081693;28;20169;-85
2022/05/18 04:42:51;;;;;;;4.75;2.20;;;16.90;78.50;;;;;;5067108;28;20054;-86
2022/05/18 04:45:21;;;;;;;4.63;2.55;;;16.90;78.50;;;;;;5077829;28;20119;-85
2022/05/18 04:47:50;;;;;;;4.90;2.42;;;17.00;78.50;;;;;;5077902;28;20047;-83
2022/05/18 04:50:18;;;;;;;3.78;2.38;;;17.10;78.50;;;;;;5101123;28;20081;-84
2022/05/18 04:52:46;;;;;;;3.20;2.25;;;17.20;78.40;;;;;;5077604;28;20135;-84
2022/05/18 04:55:16;;;;;;;4.43;2.63;;;17.30;78.20;;;;;;5097745;28;20376;-84
2022/05/18 04:57:46;;;;;;;5.50;2.22;;;17.40;78.20;;;;;;5091634;28;20106;-84
2022/05/18 05:00:15;;;;;;;3.83;2.38;;;17.50;78.00;;;;;;5075819;28;20048;-84
2022/05/18 05:02:42;;;;;;;2.80;1.85;;;17.70;77.90;;;;;;5088745;28;20036;-86
2022/05/18 05:05:11;;;;;;;3.47;1.83;;;17.80;77.70;;;;;;5083558;28;20423;-85
2022/05/18 05:07:38;;;;;;;2.92;1.67;;;17.90;77.50;;;;;;5111309;28;20052;-86
2022/05/18 05:10:07;;;;;;;3.95;1.90;;;18.00;77.40;;;;;;5092008;28;20039;-88
2022/05/18 05:12:40;;;;;;;4.32;2.20;;;18.10;77.40;;;;;;5072404;28;20067;-89
2022/05/18 05:15:08;;;;;;;3.00;1.48;;;18.10;77.30;;;;;;5113634;28;20043;-89
2022/05/18 05:17:35;;;;;;;2.75;1.65;;;18.10;77.30;;;;;;5069034;28;20039;-88
2022/05/18 05:20:03;;;;;;;3.40;1.58;;;18.20;77.20;;;;;;5094557;28;20048;-89
2022/05/18 05:22:30;;;;;;;3.10;1.73;;;18.20;77.10;;;;;;5108363;28;20089;-87
2022/05/18 05:24:57;;;;;;;3.53;1.50;;;18.30;77.10;;;;;;5097332;28;20067;-85
2022/05/18 05:27:24;;;;;;;4.15;1.80;;;18.40;77.00;;;;;;5080650;28;20043;-85
2022/05/18 05:29:52;;;;;;;2.95;1.73;;;18.40;76.80;;;;;;5085931;28;20066;-86
2022/05/18 05:32:19;;;;;;;3.03;1.50;;;18.50;76.70;;;;;;5097201;28;20046;-86
2022/05/18 05:34:46;;;;;;;2.92;1.60;;;18.60;76.60;;;;;;5089854;28;20066;-87
2022/05/18 05:37:13;;;;;;;2.67;1.55;;;18.60;76.30;;;;;;5069278;28;20052;-87
2022/05/18 05:39:41;;;;;;;3.17;1.20;;;18.70;76.20;;;;;;5082221;28;20440;-87
2022/05/18 05:42:08;;;;;;;2.55;1.48;;;18.80;76.00;;;;;;5071737;28;20052;-87
2022/05/18 05:44:35;;;;;;;2.17;1.27;;;18.90;75.90;;;;;;5066890;28;20055;-87
2022/05/18 05:47:03;;;;;;;2.70;1.45;;;19.00;75.60;;;;;;5097402;28;20172;-89
2022/05/18 05:49:31;;;;;;;3.53;1.30;;;19.20;75.40;;;;;;5082275;28;20064;-83
2022/05/18 05:51:58;;;;;;;3.63;1.23;;;19.30;75.10;;;;;;5082516;28;20035;-84
2022/05/18 05:54:26;;;;;;;2.78;1.50;;;19.50;74.90;;;;;;5092736;28;20445;-83
2022/05/18 05:56:53;;;;;;;3.90;1.45;;;19.60;74.60;;;;;;5088008;28;20044;-83
2022/05/18 05:59:21;;;;;;;3.33;1.60;;;19.70;74.30;;;;;;5087509;28;20051;-84
2022/05/18 06:01:49;;;;;;;2.70;1.50;;;19.90;74.10;;;;;;5095995;28;20195;-84
2022/05/18 06:04:17;;;;;;;3.58;1.77;;;19.90;73.80;;;;;;5095703;28;20112;-84
2022/05/18 06:06:45;;;;;;;4.88;1.60;;;20.10;73.60;;;;;;5094895;28;20082;-83
2022/05/18 06:09:12;;;;;;;2.42;1.20;;;20.20;73.20;;;;;;5087844;28;20115;-84
2022/05/18 06:11:39;;;;;;;2.22;1.25;;;20.40;73.00;;;;;;5090395;28;20043;-83
2022/05/18 06:14:06;;;;;;;1.65;1.02;;;20.60;72.60;;;;;;5077968;28;20043;-84
2022/05/18 06:16:33;;;;;;;2.35;1.15;;;20.80;72.20;;;;;;5092591;28;20157;-85
2022/05/18 06:19:01;;;;;;;2.00;0.98;;;21.00;72.00;;;;;;5075269;28;20040;-84
2022/05/18 06:21:28;;;;;;;2.92;1.02;;;21.10;71.70;;;;;;5112929;28;20043;-85
2022/05/18 06:23:55;;;;;;;2.00;0.98;;;21.30;71.40;;;;;;5113964;28;20126;-84
2022/05/18 06:26:25;;;;;;;2.75;1.00;;;21.60;71.10;;;;;;5092911;28;20040;-85
2022/05/18 06:28:53;;;;;;;2.30;0.80;;;21.70;70.60;;;;;;5100186;28;20385;-84
2022/05/18 06:31:20;;;;;;;2.42;1.00;;;21.80;70.50;;;;;;5077781;28;20094;-84
2022/05/18 06:33:47;;;;;;;2.20;0.80;;;21.80;70.30;;;;;;5085090;28;20572;-85
2022/05/18 06:36:15;;;;;;;2.90;1.13;;;21.80;70.30;;;;;;5092741;28;20135;-85
2022/05/18 06:38:42;;;;;;;1.63;0.93;;;21.80;70.60;;;;;;5095591;28;20448;-85
2022/05/18 06:41:24;;;;;;;2.50;1.00;;;21.80;71.10;;;;;;5093656;28;20101;-84
2022/05/18 06:44:04;;;;;;;3.60;1.30;;;21.70;70.50;;;;;;5094614;28;20405;-84
2022/05/18 06:46:35;;;;;;;2.20;1.07;;;21.70;70.50;;;;;;5091828;28;20031;-84
2022/05/18 06:49:05;;;;;;;2.47;1.00;;;21.60;70.60;;;;;;5104135;28;20076;-84
2022/05/18 06:51:39;;;;;;;4.40;1.00;;;21.60;70.50;;;;;;5112154;28;20209;-85
2022/05/18 06:54:07;;;;;;;2.67;1.10;;;21.70;70.40;;;;;;5112078;28;20495;-84
2022/05/18 06:56:38;;;;;;;2.88;1.10;;;21.80;70.20;;;;;;5094942;28;20043;-84
2022/05/18 06:59:06;;;;;;;1.50;0.98;;;22.00;69.90;;;;;;5111795;28;20068;-84
2022/05/18 07:01:33;;;;;;;2.55;1.25;;;22.10;69.50;;;;;;5110016;28;20109;-83
2022/05/18 07:04:00;;;;;;;4.60;1.63;;;22.40;69.20;;;;;;5076665;28;20493;-83
2022/05/18 07:06:30;;;;;;;2.67;1.33;;;22.60;68.50;;;;;;5094888;28;20184;-83
2022/05/18 07:08:58;;;;;;;2.55;1.40;;;22.80;68.10;;;;;;5097871;28;20047;-83
2022/05/18 07:11:26;;;;;;;3.33;1.63;;;23.00;67.40;;;;;;5087175;28;20052;-83
2022/05/18 07:13:55;;;;;;;4.25;2.00;;;23.20;67.00;;;;;;5089904;28;20047;-83
2022/05/18 07:16:23;;;;;;;2.03;1.17;;;23.20;66.60;;;;;;5091479;28;20101;-84
2022/05/18 07:18:51;;;;;;;2.05;1.13;;;23.20;66.30;;;;;;5091083;28;20470;-84
2022/05/18 07:21:19;;;;;;;2.70;1.30;;;23.30;66.40;;;;;;5110940;28;20047;-84
2022/05/18 07:23:47;;;;;;;2.55;1.23;;;23.30;66.30;;;;;;5089098;28;20059;-84
2022/05/18 07:26:16;;;;;;;3.72;1.70;;;23.30;66.10;;;;;;5111490;28;20066;-84
2022/05/18 07:28:43;;;;;;;4.80;1.90;;;23.30;65.90;;;;;;5111243;28;20043;-83
2022/05/18 07:31:10;;;;;;;2.50;1.38;;;23.30;65.90;;;;;;5111276;28;20039;-83
2022/05/18 07:33:57;;;;;;;4.85;1.70;;;23.30;65.60;;;;;;5085013;28;20048;-83
2022/05/18 07:36:24;;;;;;;3.40;1.90;;;23.40;65.60;;;;;;5080812;28;20036;-83
2022/05/18 07:38:51;;;;;;;3.80;1.90;;;23.40;65.20;;;;;;5091152;28;20040;-83
2022/05/18 07:41:18;;;;;;;2.97;1.50;;;23.40;65.10;;;;;;5063318;28;20080;-83
2022/05/18 07:43:46;;;;;;;3.42;1.90;;;23.50;65.00;;;;;;5061038;28;20481;-83
2022/05/18 07:46:13;;;;;;;3.13;1.98;;;23.60;64.80;;;;;;5093822;28;20040;-83
2022/05/18 07:48:41;;;;;;;4.80;2.80;;;23.60;64.50;;;;;;5115495;28;20463;-83
2022/05/18 07:51:10;;;;;;;5.95;2.88;;;23.70;64.00;;;;;;5094310;28;20059;-83
2022/05/18 07:53:37;;;;;;;5.75;3.00;;;23.60;63.70;;;;;;5078391;28;20410;-84
2022/05/18 07:56:11;;;;;;;6.25;3.25;;;23.60;63.80;;;;;;5111070;28;20058;-83
2022/05/18 07:58:38;;;;;;;4.30;2.97;;;23.50;63.70;;;;;;5094909;28;20084;-84
2022/05/18 08:01:07;;;;;;;6.43;3.13;;;23.40;63.70;;;;;;5078023;28;20054;-83
2022/05/18 08:03:35;;;;;;;5.07;2.95;;;23.30;63.70;;;;;;5107295;28;20040;-83
2022/05/18 08:06:02;;;;;;;4.85;2.63;;;23.20;64.00;;;;;;5084708;28;20549;-83
2022/05/18 08:08:30;;;;;;;3.95;2.55;;;23.10;64.10;;;;;;5077664;28;20093;-83
2022/05/18 08:16:31;;;;;;;3.28;1.83;;;23.40;64.10;;;;;;5071447;28;20074;-80
2022/05/18 08:18:59;;;;;;;4.25;2.53;;;23.60;63.90;;;;;;5079573;28;20096;-80
2022/05/18 08:21:26;;;;;;;4.78;3.20;;;23.80;63.50;;;;;;5075445;28;20051;-80
2022/05/18 08:23:54;;;;;;;5.55;3.03;;;23.90;63.20;;;;;;5097410;28;20123;-80
2022/05/18 08:26:25;;;;;;;6.97;3.50;;;24.00;62.90;;;;;;5085170;28;20139;-80
2022/05/18 08:28:52;;;;;;;7.03;4.65;;;24.10;62.50;;;;;;5104408;28;20048;-79
2022/05/18 08:31:23;;;;;;;6.22;3.92;;;24.10;62.00;;;;;;5104179;28;20048;-80
2022/05/18 08:33:52;;;;;;;5.35;3.33;;;24.10;62.10;;;;;;5111441;28;20048;-80
2022/05/18 08:36:19;;;;;;;5.75;2.83;;;24.30;62.10;;;;;;5094463;28;20449;-80
2022/05/18 08:38:46;;;;;;;5.45;3.08;;;24.40;61.90;;;;;;5096075;28;20047;-80
2022/05/18 08:41:45;;;;;;;5.70;3.10;;;24.50;61.80;;;;;;5078312;28;20130;-80
2022/05/18 08:44:25;;;;;;;5.70;3.45;;;24.80;61.50;;;;;;5088047;28;20044;-80
2022/05/18 08:47:42;;;;;;;6.10;3.83;;;24.90;61.30;;;;;;5074585;28;20078;-80
2022/05/18 08:50:16;;;;;;;4.85;3.45;;;24.80;61.20;;;;;;5029743;28;20678;-80
2022/05/18 08:53:18;;;;;;;6.13;4.50;;;24.70;61.20;;;;;;4999497;28;20037;-80
2022/05/18 08:56:04;;;;;;;4.55;3.00;;;24.90;61.20;;;;;;5081552;28;20293;-80
2022/05/18 08:58:41;;;;;;;6.25;3.83;;;25.00;61.20;;;;;;5103244;28;20040;-80
2022/05/18 09:01:19;;;;;;;6.72;4.00;;;25.10;60.80;;;;;;5106991;28;20066;-80
2022/05/18 09:03:58;;;;;;;6.03;3.40;;;25.20;60.80;;;;;;5094145;28;20047;-80
2022/05/18 09:06:45;;;;;;;5.63;3.83;;;25.30;60.60;;;;;;5103438;28;20048;-83
2022/05/18 09:12:05;;;;;;;5.30;3.97;;;25.50;60.30;;;;;;5111897;28;20044;-84
2022/05/18 09:14:37;;;;;;;6.63;4.40;;;25.40;60.10;;;;;;5111461;28;20075;-83
2022/05/18 09:17:36;;;;;;;6.47;3.08;;;25.40;60.00;;;;;;5110820;28;20112;-83
2022/05/18 09:20:15;;;;;;;5.32;2.60;;;25.40;60.10;;;;;;5105217;28;20043;-83
2022/05/18 09:23:21;;;;;;;4.47;2.60;;;25.50;60.20;;;;;;5099530;28;20250;-83
2022/05/18 09:26:26;;;;;;;5.70;3.20;;;25.70;60.10;;;;;;5107398;28;20047;-85
2022/05/18 09:29:04;;;;;;;7.00;3.30;;;25.90;59.80;;;;;;5105275;28;20691;-82
2022/05/18 09:31:53;;;;;;;4.45;2.85;;;26.00;59.80;;;;;;5101057;28;20036;-82
2022/05/18 09:34:29;;;;;;;5.13;2.58;;;26.00;59.60;;;;;;5091101;28;20044;-81
2022/05/18 09:37:31;;;;;;;3.67;2.42;;;26.20;59.60;;;;;;5093788;28;20043;-81
2022/05/18 09:40:08;;;;;;;3.63;1.95;;;26.30;59.50;;;;;;5069535;28;20043;-81
2022/05/18 09:42:42;;;;;;;4.03;2.33;;;26.40;59.60;;;;;;5092994;28;20157;-81
2022/05/18 09:45:18;;;;;;;3.85;2.47;;;26.40;59.30;;;;;;5095673;28;20047;-81
2022/05/18 09:48:08;;;;;;;4.18;2.35;;;26.50;59.40;;;;;;5093749;28;20048;-82
2022/05/18 09:50:37;;;;;;;4.50;2.28;;;26.60;59.30;;;;;;5093563;28;20047;-82
2022/05/18 09:53:05;;;;;;;3.00;1.88;;;26.70;59.20;;;;;;5110872;28;20111;-81
2022/05/18 09:55:32;;;;;;;3.95;2.63;;;26.90;59.00;;;;;;5111359;28;20446;-81
2022/05/18 09:58:03;;;;;;;6.30;3.47;;;27.00;58.70;;;;;;5092236;28;20044;-80
2022/05/18 10:00:34;;;;;;;4.75;3.45;;;27.00;58.20;;;;;;5112670;28;20054;-80
2022/05/18 10:08:53;;;;;;;4.75;2.50;;;27.00;58.00;;;;;;5125963;27;20040;-80
2022/05/18 10:11:34;;;;;;;6.57;3.00;;;27.10;58.00;;;;;;5089719;28;20035;-82
2022/05/18 10:14:31;;;;;;;4.35;2.47;;;27.20;57.70;;;;;;5100566;28;20460;-80
2022/05/18 10:17:11;;;;;;;4.60;2.78;;;27.40;57.20;;;;;;5110244;28;20130;-80
2022/05/18 10:19:51;;;;;;;3.92;2.63;;;27.40;57.20;;;;;;5110212;28;20044;-79
2022/05/18 10:22:26;;;;;;;5.03;2.60;;;27.40;57.10;;;;;;5088435;28;20055;-80
2022/05/18 10:25:32;;;;;;;5.93;3.10;;;27.40;57.00;;;;;;5095390;28;20050;-79
2022/05/18 10:28:09;;;;;;;4.20;2.78;;;27.40;56.90;;;;;;5111088;28;20044;-79
2022/05/18 10:30:37;;;;;;;4.57;1.88;;;27.40;57.10;;;;;;5112177;28;20044;-80
2022/05/18 10:33:19;;;;;;;3.13;2.00;;;27.50;57.20;;;;;;5062439;28;20552;-80
2022/05/18 10:35:53;;;;;;;4.53;2.13;;;27.70;57.10;;;;;;5107708;28;20047;-80
2022/05/18 10:38:29;;;;;;;4.88;2.65;;;27.80;56.80;;;;;;5112126;28;20093;-79
2022/05/18 10:41:02;;;;;;;3.58;1.88;;;27.90;56.60;;;;;;5107964;28;20055;-79
2022/05/18 10:43:37;;;;;;;2.42;1.40;;;27.90;56.60;;;;;;5098560;28;20058;-79
2022/05/18 10:46:17;;;;;;;2.30;1.50;;;27.90;56.60;;;;;;5089191;28;20122;-80
2022/05/18 10:48:58;;;;;;;4.07;2.42;;;28.00;56.50;;;;;;5111825;28;20476;-79
2022/05/18 10:51:43;;;;;;;4.00;2.40;;;27.90;56.10;;;;;;5094647;28;20476;-79
2022/05/18 10:54:21;;;;;;;4.53;2.35;;;27.90;56.00;;;;;;5110800;28;20575;-80
2022/05/18 10:56:49;;;;;;;3.45;1.83;;;28.00;55.90;;;;;;5108996;28;20047;-80
2022/05/18 10:59:17;;;;;;;4.50;2.47;;;28.10;55.70;;;;;;5092340;28;20076;-80
2022/05/18 11:01:58;;;;;;;6.00;2.97;;;28.30;55.10;;;;;;5110528;28;20039;-79
2022/05/18 11:04:44;;;;;;;4.07;2.65;;;28.40;54.50;;;;;;5111012;28;20042;-80
2022/05/18 11:07:11;;;;;;;3.47;1.75;;;28.40;54.30;;;;;;5111792;28;20047;-79
2022/05/18 11:09:44;;;;;;;3.17;1.85;;;28.50;54.50;;;;;;5094421;28;20051;-79
2022/05/18 11:12:16;;;;;;;2.85;1.52;;;28.60;54.40;;;;;;5078832;28;20048;-80
2022/05/18 11:15:00;;;;;;;4.93;2.50;;;28.80;54.40;;;;;;5098298;28;20495;-79
2022/05/18 11:17:57;;;;;;;4.65;2.97;;;28.90;53.90;;;;;;5105950;28;20059;-79
2022/05/18 11:20:52;;;;;;;4.50;2.55;;;29.00;53.70;;;;;;5089609;28;20044;-79
2022/05/18 11:24:00;;;;;;;4.20;2.67;;;29.00;53.70;;;;;;5104369;28;20043;-79
2022/05/18 11:27:25;;;;;;;3.70;1.80;;;29.00;53.60;;;;;;5104653;28;20055;-79
2022/05/18 11:30:07;;;;;;;3.40;2.00;;;29.20;53.60;;;;;;5036959;28;20044;-78
2022/05/18 11:32:56;;;;;;;3.40;2.05;;;29.40;53.00;;;;;;5011093;28;20049;-78
2022/05/18 11:35:46;;;;;;;4.53;2.40;;;29.60;52.80;;;;;;5091750;27;20139;-79
2022/05/18 11:38:31;;;;;;;3.20;1.85;;;29.60;52.40;;;;;;5096379;28;20075;-80
2022/05/18 11:41:46;;;;;;;3.33;2.15;;;29.70;52.30;;;;;;5109273;28;20100;-78
2022/05/18 11:44:17;;;;;;;4.30;2.92;;;29.90;52.10;;;;;;5070512;28;20048;-77
2022/05/18 11:47:09;;;;;;;3.25;2.20;;;30.00;51.90;;;;;;5103573;28;20135;-78
2022/05/18 11:49:49;;;;;;;3.33;1.50;;;30.20;51.80;;;;;;5106593;28;20039;-78
2022/05/18 11:52:29;;;;;;;3.38;1.95;;;30.60;51.40;;;;;;5114803;28;20106;-78
2022/05/18 11:55:26;;;;;;;4.18;2.35;;;30.80;50.80;;;;;;5110503;28;20056;-77
2022/05/18 11:58:25;;;;;;;4.43;2.33;;;30.50;50.80;;;;;;5086368;28;20054;-78
2022/05/18 12:01:08;;;;;;;;;;;30.50;50.70;;;;;;5094419;28;20047;-77
2022/05/18 12:04:01;;;;;;;3.20;1.85;;;30.70;50.40;;;;;;5096001;28;19920;-78
2022/05/18 12:06:36;;;;;;;4.60;2.47;;;31.30;49.80;;;;;;5097491;28;20460;-80
2022/05/18 12:09:25;;;;;;;3.08;2.08;;;31.50;48.90;;;;;;5114922;28;20525;-79
2022/05/18 12:12:06;;;;;;;2.63;1.52;;;31.70;48.70;;;;;;5114631;28;20365;-78
2022/05/18 12:14:51;;;;;;;3.70;1.63;;;32.10;48.70;;;;;;5115027;28;20066;-79
2022/05/18 12:17:28;;;;;;;3.53;1.63;;;32.30;47.90;;;;;;5102000;28;20047;-81
2022/05/18 12:20:29;;;;;;;3.13;1.48;;;32.20;47.80;;;;;;5111216;28;20047;-79
2022/05/18 12:23:00;;;;;;;2.88;1.50;;;32.30;47.60;;;;;;5110919;28;20035;-78
2022/05/18 12:25:30;;;;;;;3.67;2.10;;;32.30;47.70;;;;;;5097401;28;20046;-80
2022/05/18 12:28:01;;;;;;;3.25;1.77;;;31.80;47.80;;;;;;5099228;28;20096;-76
2022/05/18 12:30:31;;;;;;;5.75;1.42;;;31.10;48.50;;;;;;5114801;28;20048;-79
2022/05/18 12:32:58;;;;;;;2.60;1.13;;;30.80;49.00;;;;;;5077603;28;20139;-80
2022/05/18 12:35:35;;;;;;;1.90;1.15;;;30.70;49.40;;;;;;5105153;28;20036;-79
2022/05/18 12:38:07;;;;;;;3.22;1.20;;;30.50;49.50;;;;;;5112138;28;20047;-79
2022/05/18 12:40:44;;;;;;;3.38;1.65;;;30.10;49.70;;;;;;5108570;28;20388;-80
2022/05/18 12:43:24;;;;;;;4.93;1.42;;;29.80;49.90;;;;;;5111665;28;20100;-78
2022/05/18 12:46:02;;;;;;;2.90;1.30;;;29.60;50.20;;;;;;5096675;28;20077;-76
2022/05/18 12:48:49;;;;;;;2.28;1.08;;;29.40;50.20;;;;;;5113753;28;20386;-76
2022/05/18 12:51:30;;;;;;;2.53;0.90;;;29.10;50.50;;;;;;5112053;28;20463;-79
2022/05/18 12:54:09;;;;;;;1.45;0.73;;;29.10;50.80;;;;;;5108244;28;20379;-77
2022/05/18 12:56:36;;;;;;;2.00;1.13;;;29.00;50.70;;;;;;5112672;28;20050;-78
2022/05/18 12:59:15;;;;;;;1.67;0.85;;;28.80;50.70;;;;;;5114367;28;20433;-78
2022/05/18 13:01:45;;;;;;;3.30;1.50;;;28.80;50.80;;;;;;5112675;28;20051;-80
2022/05/18 13:04:16;;;;;;;2.53;1.20;;;28.80;51.20;;;;;;5113869;28;20059;-81
2022/05/18 13:07:09;;;;;;;2.30;0.90;;;29.10;50.30;;;;;;5095999;28;20507;-76
2022/05/18 13:09:39;;;;;;;1.75;1.00;;;29.40;49.90;;;;;;5091826;28;20040;-76
2022/05/18 13:12:17;;;;;;;1.73;0.70;;;29.90;49.50;;;;;;5097399;28;20035;-77
2022/05/18 13:15:00;;;;;;;2.83;1.10;;;30.30;49.20;;;;;;5115279;28;20048;-77
2022/05/18 13:17:55;;;;;;;4.10;1.10;;;30.30;49.00;;;;;;5099051;28;20098;-77
2022/05/18 13:20:22;;;;;;;1.98;1.08;;;30.50;48.80;;;;;;5113552;28;20042;-79
2022/05/18 13:23:26;;;;;;;3.28;1.38;;;30.20;48.90;;;;;;5109054;28;20050;-79
2022/05/18 13:26:00;;;;;;;3.90;1.30;;;29.80;49.40;;;;;;5086010;28;20047;-78
2022/05/18 13:28:33;;;;;;;2.50;1.10;;;29.40;49.80;;;;;;5113407;28;20043;-78
2022/05/18 13:31:02;;;;;;;2.72;1.30;;;29.10;50.30;;;;;;5093516;28;20495;-79
2022/05/18 13:33:58;;;;;;;3.03;1.40;;;28.80;50.70;;;;;;5091062;28;20504;-77
2022/05/18 13:36:33;;;;;;;2.40;1.50;;;28.50;51.00;;;;;;5109003;28;20077;-77